Time;durP1;ratioP1;P1;durP2;ratioP2;P2;SDS_P1;SDS_P2;PMS_P1;PMS_P2;Temp;Humidity;BMP_temperature;BMP_pressure;BME280_temperature;BME280_humidity;BME280_pressure;Samples;Min_cycle;Max_cycle;Signal;HPM_P1;HPM_P2
2022/04/07 00:01:16;;;;;;;6.63;3.58;;;;;;;10.23;48.12;93952.22;5112323;28;20027;-74
2022/04/07 00:03:42;;;;;;;7.28;3.65;;;;;;;10.22;47.76;93951.41;5108959;28;20126;-73
2022/04/07 00:06:09;;;;;;;4.78;3.33;;;;;;;10.17;48.23;93938.03;5113265;28;20063;-74
2022/04/07 00:08:38;;;;;;;5.63;3.15;;;;;;;10.13;48.76;93923.72;5131447;27;20549;-74
2022/04/07 00:11:04;;;;;;;4.70;3.60;;;;;;;10.05;48.37;93928.81;5098375;27;20518;-74
2022/04/07 00:13:29;;;;;;;4.55;3.40;;;;;;;10.02;48.25;93916.94;5146551;27;20026;-73
2022/04/07 00:15:56;;;;;;;5.20;3.50;;;;;;;10.12;47.64;93922.09;5133644;27;20520;-74
2022/04/07 00:18:22;;;;;;;5.00;3.25;;;;;;;10.18;47.38;93921.50;5132360;27;20038;-74
2022/04/07 00:20:47;;;;;;;4.65;3.13;;;;;;;10.25;47.32;93917.38;5131252;27;20035;-74
2022/04/07 00:23:13;;;;;;;5.18;3.65;;;;;;;10.27;47.08;93920.63;5116870;27;20114;-74
2022/04/07 00:25:38;;;;;;;4.70;3.30;;;;;;;10.29;47.99;93921.31;5133923;27;20031;-74
2022/04/07 00:28:07;;;;;;;3.72;2.80;;;;;;;10.38;46.98;93916.22;5115364;27;20569;-74
2022/04/07 00:30:32;;;;;;;3.80;3.00;;;;;;;10.44;47.47;93903.44;5150263;27;20396;-74
2022/04/07 00:32:58;;;;;;;5.25;3.20;;;;;;;10.43;46.58;93891.44;5154191;27;20025;-73
2022/04/07 00:35:25;;;;;;;4.85;3.17;;;;;;;10.52;46.23;93897.50;5129261;27;20104;-74
2022/04/07 00:37:50;;;;;;;4.78;3.05;;;;;;;10.53;46.83;93878.38;5110012;27;20052;-74
2022/04/07 00:40:17;;;;;;;4.75;3.00;;;;;;;10.54;48.00;93887.81;5099000;27;20095;-74
2022/04/07 00:42:50;;;;;;;4.35;3.28;;;;;;;10.44;48.82;93885.25;5132176;27;20492;-73
2022/04/07 00:45:16;;;;;;;5.13;3.38;;;;;;;10.24;49.49;93884.56;5097946;27;20049;-74
2022/04/07 00:47:42;;;;;;;4.30;3.28;;;;;;;10.18;49.86;93881.75;5132257;27;20038;-74
2022/04/07 00:50:10;;;;;;;3.85;2.90;;;;;;;10.03;49.40;93874.47;5097208;27;20050;-73
2022/04/07 00:52:36;;;;;;;4.20;3.22;;;;;;;10.03;49.92;93879.66;5114623;27;20110;-73
2022/04/07 00:55:02;;;;;;;4.28;2.85;;;;;;;10.00;49.46;93874.78;5129570;27;20039;-74
2022/04/07 00:57:27;;;;;;;3.92;3.30;;;;;;;10.00;49.05;93867.00;5114831;27;20140;-74
2022/04/07 00:59:53;;;;;;;4.95;3.35;;;;;;;9.99;50.49;93862.75;5122386;27;20039;-74
2022/04/07 01:02:19;;;;;;;4.72;3.45;;;;;;;9.89;50.52;93862.00;5112108;28;20103;-74
2022/04/07 01:04:45;;;;;;;5.55;3.55;;;;;;;9.78;50.59;93870.00;5112393;28;20054;-74
2022/04/07 01:07:10;;;;;;;5.05;3.40;;;;;;;9.61;50.51;93858.59;5112850;28;20446;-74
2022/04/07 01:09:36;;;;;;;4.97;3.10;;;;;;;9.62;50.67;93860.25;5130868;27;20028;-74
2022/04/07 01:12:01;;;;;;;4.55;3.53;;;;;;;9.61;51.20;93859.44;5109487;28;20036;-74
2022/04/07 01:14:27;;;;;;;4.93;2.92;;;;;;;9.56;51.04;93845.25;5094371;28;20122;-74
2022/04/07 01:16:52;;;;;;;4.55;3.30;;;;;;;9.55;51.09;93844.41;5112347;28;20032;-74
2022/04/07 01:19:18;;;;;;;4.00;3.00;;;;;;;9.37;51.42;93836.59;5091019;27;20024;-73
2022/04/07 01:21:43;;;;;;;5.68;3.15;;;;;;;9.24;52.63;93835.28;5115826;27;20404;-74
2022/04/07 01:24:10;;;;;;;3.97;3.08;;;;;;;9.24;51.22;93820.56;5114784;27;20030;-74
2022/04/07 01:26:43;;;;;;;24.25;12.00;;;;;;;9.30;50.80;93809.63;5112128;27;20039;-74
2022/04/07 01:29:16;;;;;;;38.42;18.25;;;;;;;9.24;51.60;93820.56;5087201;27;20041;-74
2022/04/07 01:31:42;;;;;;;8.50;5.32;;;;;;;9.22;51.52;93821.66;5132333;27;20527;-74
2022/04/07 01:34:14;;;;;;;4.93;3.63;;;;;;;9.24;51.36;93810.19;5097813;28;20031;-74
2022/04/07 01:36:45;;;;;;;4.97;3.53;;;;;;;9.18;52.16;93783.09;5113196;27;20281;-74
2022/04/07 01:39:13;;;;;;;;;;;;;;;9.28;50.77;93784.84;5127977;27;20081;-74
2022/04/07 01:41:39;;;;;;;4.30;2.90;;;;;;;9.25;51.09;93778.16;5111809;28;19916;-73
2022/04/07 01:44:04;;;;;;;4.47;3.00;;;;;;;9.25;51.53;93775.56;5094781;28;20035;-74
2022/04/07 01:46:30;;;;;;;4.78;3.05;;;;;;;9.25;50.76;93774.72;5112044;27;20036;-74
2022/04/07 01:48:55;;;;;;;6.20;3.10;;;;;;;9.31;50.62;93774.97;5094970;28;20024;-74
2022/04/07 01:51:21;;;;;;;4.25;3.17;;;;;;;9.31;50.64;93769.81;5094980;28;20036;-74
2022/04/07 01:53:46;;;;;;;3.50;3.00;;;;;;;9.33;51.00;93772.22;5077803;28;20035;-74
2022/04/07 01:56:12;;;;;;;4.25;3.05;;;;;;;9.33;50.57;93756.69;5094412;28;20773;-74
2022/04/07 01:58:37;;;;;;;4.63;3.03;;;;;;;9.36;51.10;93752.03;5111636;28;20020;-73
2022/04/07 02:01:03;;;;;;;4.75;3.00;;;;;;;9.44;50.36;93753.06;5077930;28;20096;-74
2022/04/07 02:03:29;;;;;;;5.47;3.30;;;;;;;9.44;50.13;93753.06;5111480;28;20106;-73
2022/04/07 02:05:54;;;;;;;3.85;3.00;;;;;;;9.53;49.80;93747.03;5107582;27;20042;-73
2022/04/07 02:08:20;;;;;;;4.28;3.30;;;;;;;9.58;49.71;93747.38;5132074;27;20030;-73
2022/04/07 02:10:45;;;;;;;3.95;3.05;;;;;;;9.60;49.79;93743.69;5114845;27;20121;-74
2022/04/07 02:13:13;;;;;;;4.07;3.10;;;;;;;9.54;49.81;93741.69;5131982;27;20038;-72
2022/04/07 02:15:38;;;;;;;4.47;3.13;;;;;;;9.61;49.80;93752.28;5129705;27;20485;-72
2022/04/07 02:18:04;;;;;;;5.18;3.75;;;;;;;9.60;50.08;93745.47;5114784;27;20034;-72
2022/04/07 02:20:29;;;;;;;4.45;3.50;;;;;;;9.55;49.72;93734.72;5114671;27;20508;-72
2022/04/07 02:22:54;;;;;;;5.13;3.67;;;;;;;9.60;49.87;93733.31;5132838;27;20044;-72
2022/04/07 02:25:25;;;;;;;5.43;3.47;;;;;;;9.55;50.48;93726.94;5129940;27;20467;-72
2022/04/07 02:27:51;;;;;;;8.10;3.78;;;;;;;9.51;49.86;93723.03;5131703;27;20031;-72
2022/04/07 02:30:16;;;;;;;4.47;3.35;;;;;;;9.57;50.24;93718.06;5097603;27;20181;-72
2022/04/07 02:32:42;;;;;;;3.88;3.15;;;;;;;9.52;50.47;93720.28;5132650;27;20030;-72
2022/04/07 02:35:08;;;;;;;3.67;2.95;;;;;;;9.55;50.33;93724.34;5113861;27;20038;-72
2022/04/07 02:37:34;;;;;;;5.43;3.50;;;;;;;9.56;50.02;93724.22;5132615;27;20047;-72
2022/04/07 02:39:59;;;;;;;4.35;3.40;;;;;;;9.54;50.17;93728.72;5131567;27;20035;-72
2022/04/07 02:42:24;;;;;;;4.50;3.10;;;;;;;9.39;50.48;93727.63;5130219;27;20028;-72
2022/04/07 02:44:50;;;;;;;4.85;3.47;;;;;;;9.30;50.76;93721.50;5093146;28;20481;-72
2022/04/07 02:47:16;;;;;;;4.45;3.25;;;;;;;9.27;50.75;93700.25;5111844;28;20034;-72
2022/04/07 02:49:42;;;;;;;5.18;3.38;;;;;;;9.18;51.06;93713.13;5110601;28;20035;-72
2022/04/07 02:52:08;;;;;;;4.18;3.33;;;;;;;9.11;51.19;93704.31;5110642;28;20020;-72
2022/04/07 02:54:34;;;;;;;4.13;3.35;;;;;;;9.20;50.83;93714.78;5128286;27;20035;-72
2022/04/07 02:56:59;;;;;;;6.38;3.58;;;;;;;9.23;51.17;93709.28;5130968;27;20019;-72
2022/04/07 02:59:25;;;;;;;4.40;3.30;;;;;;;9.21;51.24;93693.88;5131088;27;20076;-72
2022/04/07 03:01:52;;;;;;;6.50;3.30;;;;;;;9.19;50.89;93685.44;5124795;27;20080;-73
2022/04/07 03:04:18;;;;;;;5.78;3.70;;;;;;;9.17;51.27;93680.41;5111865;28;20031;-73
2022/04/07 03:06:43;;;;;;;8.45;3.72;;;;;;;9.15;51.31;93674.53;5093469;28;20520;-73
2022/04/07 03:09:09;;;;;;;5.47;3.25;;;;;;;9.23;51.30;93671.22;5110341;28;20035;-73
2022/04/07 03:11:34;;;;;;;4.40;3.40;;;;;;;9.26;50.83;93657.97;5095712;27;20465;-73
2022/04/07 03:14:00;;;;;;;4.13;3.17;;;;;;;9.24;51.24;93654.72;5113773;27;20031;-73
2022/04/07 03:16:25;;;;;;;4.30;3.28;;;;;;;9.22;51.17;93641.09;5115382;27;20088;-73
2022/04/07 03:18:51;;;;;;;4.75;3.30;;;;;;;9.33;51.54;93648.66;5110324;28;20143;-73
2022/04/07 03:21:16;;;;;;;3.85;3.17;;;;;;;9.32;50.99;93643.63;5111136;27;20020;-73
2022/04/07 03:23:41;;;;;;;5.50;3.80;;;;;;;9.37;51.16;93660.34;5110190;28;20418;-73
2022/04/07 03:26:07;;;;;;;5.97;3.30;;;;;;;9.35;51.60;93666.66;5094291;28;20039;-73
2022/04/07 03:28:32;;;;;;;5.65;3.80;;;;;;;9.30;51.81;93661.88;5113525;28;20444;-73
2022/04/07 03:30:58;;;;;;;6.43;3.85;;;;;;;9.32;51.42;93653.97;5132206;27;20030;-73
2022/04/07 03:33:23;;;;;;;5.50;3.45;;;;;;;9.31;51.88;93645.41;5113452;28;20023;-73
2022/04/07 03:35:49;;;;;;;6.93;3.50;;;;;;;9.24;52.12;93639.16;5128471;28;20042;-73
2022/04/07 03:38:15;;;;;;;4.07;3.42;;;;;;;9.29;51.85;93642.13;5130601;28;20031;-73
2022/04/07 03:40:40;;;;;;;4.38;3.75;;;;;;;9.09;52.50;93630.28;5131949;27;20039;-73
2022/04/07 03:43:06;;;;;;;5.13;3.42;;;;;;;9.12;52.71;93625.63;5130474;28;20027;-73
2022/04/07 03:45:31;;;;;;;6.68;4.22;;;;;;;9.09;52.52;93609.56;5114701;28;20055;-73
2022/04/07 03:47:57;;;;;;;6.68;3.25;;;;;;;9.07;52.75;93601.91;5113574;28;20031;-73
2022/04/07 03:50:22;;;;;;;6.43;3.33;;;;;;;9.00;52.74;93613.84;5113491;28;20039;-73
2022/04/07 03:52:48;;;;;;;5.35;3.85;;;;;;;9.00;52.94;93598.31;5127209;28;20035;-73
2022/04/07 03:55:13;;;;;;;5.82;3.80;;;;;;;9.08;52.58;93595.78;5112931;28;20046;-73
2022/04/07 03:57:39;;;;;;;6.10;3.08;;;;;;;9.06;52.71;93587.34;5113970;28;20076;-73
2022/04/07 04:00:05;;;;;;;4.60;3.30;;;;;;;9.02;52.41;93580.81;5133057;27;20050;-73
2022/04/07 04:02:30;;;;;;;5.53;3.15;;;;;;;9.08;52.37;93571.63;5117352;27;20030;-73
2022/04/07 04:04:56;;;;;;;6.13;3.42;;;;;;;9.02;52.17;93578.22;5117355;27;20035;-73
2022/04/07 04:07:21;;;;;;;5.65;3.28;;;;;;;9.11;52.11;93581.69;5127163;27;20425;-73
2022/04/07 04:09:47;;;;;;;4.57;3.40;;;;;;;9.19;52.21;93574.00;5114966;28;20035;-73
2022/04/07 04:12:13;;;;;;;4.47;3.22;;;;;;;9.21;51.98;93577.28;5113723;28;20084;-73
2022/04/07 04:14:38;;;;;;;5.13;3.53;;;;;;;9.25;51.61;93590.75;5080549;28;20085;-73
2022/04/07 04:17:04;;;;;;;5.50;3.17;;;;;;;9.16;51.87;93564.78;5114616;27;20044;-74
2022/04/07 04:19:29;;;;;;;5.18;3.50;;;;;;;9.22;51.98;93597.06;5114805;28;20108;-73
2022/04/07 04:21:56;;;;;;;5.10;3.25;;;;;;;9.27;51.66;93576.66;5128065;27;20478;-73
2022/04/07 04:24:21;;;;;;;5.18;3.50;;;;;;;9.32;51.67;93578.81;5124350;27;20110;-73
2022/04/07 04:26:47;;;;;;;5.82;3.53;;;;;;;9.37;51.47;93581.78;5096430;28;20028;-73
2022/04/07 04:29:12;;;;;;;7.85;4.00;;;;;;;9.38;51.53;93571.25;5096431;28;20031;-73
2022/04/07 04:31:38;;;;;;;5.55;4.18;;;;;;;9.46;51.97;93585.25;5096294;28;20102;-73
2022/04/07 04:34:03;;;;;;;6.78;4.45;;;;;;;9.43;52.49;93593.34;5130105;27;20027;-73
2022/04/07 04:36:29;;;;;;;6.72;4.07;;;;;;;9.32;52.25;93571.06;5116750;27;20255;-73
2022/04/07 04:38:54;;;;;;;4.93;4.07;;;;;;;9.47;51.58;93572.16;5133873;27;20154;-73
2022/04/07 04:41:19;;;;;;;5.57;4.13;;;;;;;9.57;51.93;93572.06;5133872;27;20030;-73
2022/04/07 04:43:45;;;;;;;8.20;4.07;;;;;;;9.60;51.93;93577.75;5119480;27;20471;-73
2022/04/07 04:46:10;;;;;;;9.75;4.32;;;;;;;9.61;51.86;93578.56;5113218;28;20061;-73
2022/04/07 04:48:38;;;;;;;5.90;4.38;;;;;;;9.41;52.87;93564.97;5112946;28;20477;-73
2022/04/07 04:51:04;;;;;;;7.38;3.85;;;;;;;9.52;52.66;93579.47;5114346;27;20036;-73
2022/04/07 04:53:29;;;;;;;5.18;3.80;;;;;;;9.54;52.18;93569.78;5128183;27;20515;-73
2022/04/07 04:55:55;;;;;;;6.35;3.78;;;;;;;9.58;52.07;93577.09;5128673;27;20071;-73
2022/04/07 04:58:20;;;;;;;5.50;3.67;;;;;;;9.55;52.16;93571.38;5133891;27;20031;-73
2022/04/07 05:00:45;;;;;;;5.05;3.60;;;;;;;9.55;50.22;93574.78;5126272;27;20040;-73
2022/04/07 05:03:11;;;;;;;5.20;3.58;;;;;;;9.53;50.46;93584.50;5111786;28;20065;-73
2022/04/07 05:05:36;;;;;;;7.68;3.97;;;;;;;9.56;50.87;93604.16;5112086;28;20050;-73
2022/04/07 05:08:02;;;;;;;4.50;3.60;;;;;;;9.55;50.19;93607.69;5110806;28;20031;-73
2022/04/07 05:10:27;;;;;;;4.40;3.30;;;;;;;9.51;50.06;93602.00;5092615;28;20428;-73
2022/04/07 05:12:53;;;;;;;4.28;3.20;;;;;;;9.60;49.84;93587.31;5094597;28;20028;-73
2022/04/07 05:15:18;;;;;;;4.45;3.47;;;;;;;9.63;49.93;93581.81;5111170;28;20039;-73
2022/04/07 05:17:50;;;;;;;7.07;3.88;;;;;;;9.61;49.79;93584.56;5111539;28;20036;-73
2022/04/07 05:20:16;;;;;;;4.35;3.25;;;;;;;9.65;49.95;93584.28;5101905;28;20100;-73
2022/04/07 05:22:42;;;;;;;5.30;3.72;;;;;;;9.64;49.82;93580.88;5109503;28;20069;-74
2022/04/07 05:25:08;;;;;;;7.80;3.60;;;;;;;9.45;50.14;93544.75;5078168;27;20122;-73
2022/04/07 05:27:36;;;;;;;5.30;3.33;;;;;;;9.66;50.14;93560.78;5093577;27;20020;-72
2022/04/07 05:30:05;;;;;;;5.72;3.85;;;;;;;9.72;49.89;93567.97;5110948;28;20031;-73
2022/04/07 05:32:31;;;;;;;5.18;3.42;;;;;;;9.79;49.64;93565.56;5111323;28;20023;-73
2022/04/07 05:34:56;;;;;;;4.55;3.60;;;;;;;9.85;49.74;93588.28;5111538;27;20379;-73
2022/04/07 05:37:22;;;;;;;3.65;3.25;;;;;;;9.87;49.03;93573.41;5110584;28;20051;-73
2022/04/07 05:39:47;;;;;;;4.25;3.33;;;;;;;9.74;49.80;93589.34;5110964;28;20028;-73
2022/04/07 05:42:13;;;;;;;5.13;3.33;;;;;;;9.62;49.69;93565.44;5112755;28;20512;-73
2022/04/07 05:44:38;;;;;;;6.22;3.67;;;;;;;9.78;50.73;93580.31;5108552;27;20035;-73
2022/04/07 05:47:04;;;;;;;6.13;3.78;;;;;;;9.93;51.49;93582.34;5106630;27;20509;-73
2022/04/07 05:49:29;;;;;;;6.45;3.47;;;;;;;9.93;51.19;93557.22;5112101;28;20032;-73
2022/04/07 05:52:00;;;;;;;6.03;3.40;;;;;;;10.04;50.46;93549.16;5101318;27;20084;-73
2022/04/07 05:54:27;;;;;;;5.70;3.65;;;;;;;10.11;50.90;93566.72;5127664;27;20043;-73
2022/04/07 05:56:52;;;;;;;5.00;3.63;;;;;;;10.10;50.55;93552.13;5117372;27;20058;-73
2022/04/07 05:59:17;;;;;;;4.63;3.55;;;;;;;10.12;50.56;93540.63;5122536;27;20536;-73
2022/04/07 06:01:43;;;;;;;4.65;3.83;;;;;;;10.20;52.17;93543.25;5096225;27;20038;-72
2022/04/07 06:04:08;;;;;;;7.70;4.22;;;;;;;10.24;51.65;93539.38;5118187;27;20027;-73
2022/04/07 06:06:34;;;;;;;6.30;4.30;;;;;;;10.08;52.62;93515.94;5132141;27;20425;-73
2022/04/07 06:08:59;;;;;;;5.90;3.70;;;;;;;10.17;50.72;93528.00;5119022;27;20039;-73
2022/04/07 06:11:25;;;;;;;5.78;3.70;;;;;;;10.09;51.18;93517.56;5122761;27;20450;-73
2022/04/07 06:13:50;;;;;;;5.00;3.67;;;;;;;10.09;53.00;93511.59;5110228;28;20039;-73
2022/04/07 06:16:15;;;;;;;7.68;3.88;;;;;;;10.09;52.54;93521.97;5097556;28;20413;-73
2022/04/07 06:18:41;;;;;;;4.85;3.47;;;;;;;10.10;52.99;93515.78;5109641;28;20035;-73
2022/04/07 06:21:06;;;;;;;10.90;3.88;;;;;;;10.18;52.30;93518.44;5127451;27;20042;-73
2022/04/07 06:23:32;;;;;;;5.32;3.75;;;;;;;10.17;53.49;93507.25;5110302;28;20034;-73
2022/04/07 06:25:58;;;;;;;5.95;3.85;;;;;;;10.12;53.53;93504.28;5110061;28;20481;-72
2022/04/07 06:28:23;;;;;;;7.38;4.30;;;;;;;10.21;52.79;93512.91;5119714;27;20027;-73
2022/04/07 06:30:51;;;;;;;5.65;4.10;;;;;;;10.25;52.42;93519.41;5122116;27;20030;-73
2022/04/07 06:33:17;;;;;;;7.78;4.05;;;;;;;10.25;52.28;93520.25;5094660;27;20032;-73
2022/04/07 06:35:43;;;;;;;9.25;4.38;;;;;;;10.26;51.63;93514.06;5113567;27;20114;-73
2022/04/07 06:38:08;;;;;;;6.60;4.90;;;;;;;10.19;51.38;93502.69;5131444;27;20080;-73
2022/04/07 06:40:33;;;;;;;6.55;4.05;;;;;;;10.30;50.63;93514.59;5132469;27;20512;-73
2022/04/07 06:42:59;;;;;;;5.85;5.03;;;;;;;10.23;51.38;93501.41;5131322;27;20417;-73
2022/04/07 06:45:25;;;;;;;9.10;4.80;;;;;;;10.25;51.78;93496.88;5114312;27;20077;-73
2022/04/07 06:47:51;;;;;;;5.60;4.25;;;;;;;10.31;52.35;93502.44;5111729;27;20027;-73
2022/04/07 06:50:17;;;;;;;7.68;5.00;;;;;;;10.34;50.71;93500.34;5112385;27;20106;-73
2022/04/07 06:52:43;;;;;;;7.18;4.60;;;;;;;10.34;51.29;93502.13;5090053;28;20546;-73
2022/04/07 06:55:09;;;;;;;7.43;5.28;;;;;;;10.44;50.82;93503.59;5110581;28;20035;-73
2022/04/07 06:57:51;;;;;;;6.32;3.88;;;;;;;10.50;48.61;93496.97;5103471;28;20023;-72
2022/04/07 07:00:18;;;;;;;6.40;4.00;;;;;;;10.48;48.93;93504.13;5106538;27;20501;-72
2022/04/07 07:02:47;;;;;;;5.32;3.88;;;;;;;10.46;48.79;93501.69;5131034;27;20986;-73
2022/04/07 07:05:13;;;;;;;5.47;4.00;;;;;;;10.47;49.20;93499.88;5130877;27;20130;-73
2022/04/07 07:07:38;;;;;;;5.95;4.05;;;;;;;10.56;49.16;93501.56;5113764;27;20023;-72
2022/04/07 07:10:04;;;;;;;9.88;7.47;;;;;;;10.63;48.84;93493.94;5147319;27;20031;-73
2022/04/07 07:12:30;;;;;;;6.38;4.07;;;;;;;10.64;48.73;93501.56;5152755;27;20118;-72
2022/04/07 07:14:55;;;;;;;7.05;3.63;;;;;;;10.65;47.77;93473.81;5151609;27;20455;-73
2022/04/07 07:17:20;;;;;;;8.43;4.82;;;;;;;10.73;47.82;93479.03;5151482;27;20067;-73
2022/04/07 07:19:46;;;;;;;7.90;3.75;;;;;;;10.78;47.51;93483.72;5134235;27;20058;-73
2022/04/07 07:22:11;;;;;;;6.72;4.03;;;;;;;10.78;48.45;93473.31;5151438;27;20527;-73
2022/04/07 07:24:37;;;;;;;8.50;4.00;;;;;;;10.94;47.35;93476.75;5152635;27;20027;-73
2022/04/07 07:27:02;;;;;;;6.38;3.80;;;;;;;11.00;46.67;93467.50;5142079;27;20027;-73
2022/04/07 07:29:29;;;;;;;6.20;3.67;;;;;;;11.07;46.25;93472.88;5113053;28;20031;-73
2022/04/07 07:31:54;;;;;;;9.52;3.78;;;;;;;11.10;46.20;93462.97;5130274;27;20047;-73
2022/04/07 07:34:20;;;;;;;16.20;8.07;;;;;;;11.14;46.33;93459.06;5131644;27;20464;-73
2022/04/07 07:36:45;;;;;;;12.48;8.30;;;;;;;11.29;46.31;93455.81;5131459;27;20058;-73
2022/04/07 07:39:11;;;;;;;8.90;5.47;;;;;;;11.28;46.57;93444.59;5131715;27;20478;-73
2022/04/07 07:41:38;;;;;;;6.53;3.95;;;;;;;11.38;46.50;93458.22;5113387;28;20080;-73
2022/04/07 07:44:04;;;;;;;4.80;3.67;;;;;;;11.40;45.94;93458.06;5131640;27;20027;-73
2022/04/07 07:46:30;;;;;;;8.20;4.80;;;;;;;11.44;46.21;93445.53;5131492;27;20041;-73
2022/04/07 07:48:56;;;;;;;7.43;4.75;;;;;;;11.39;46.25;93426.06;5113405;28;20027;-73
2022/04/07 07:51:21;;;;;;;6.68;4.47;;;;;;;11.58;46.34;93424.84;5130624;28;20027;-73
2022/04/07 07:53:47;;;;;;;10.15;4.88;;;;;;;11.75;45.53;93437.81;5113318;28;20462;-73
2022/04/07 07:56:12;;;;;;;7.97;4.40;;;;;;;11.78;46.11;93442.69;5113376;28;20447;-73
2022/04/07 07:58:38;;;;;;;7.72;4.50;;;;;;;11.74;46.38;93428.41;5130396;28;20039;-73
2022/04/07 08:01:03;;;;;;;7.03;4.13;;;;;;;11.84;45.92;93422.03;5113142;28;20477;-73
2022/04/07 08:03:29;;;;;;;5.68;3.72;;;;;;;12.00;45.42;93433.38;5130310;28;20088;-73
2022/04/07 08:05:54;;;;;;;5.75;3.78;;;;;;;12.10;44.13;93422.78;5113304;28;20038;-73
2022/04/07 08:08:23;;;;;;;9.00;4.20;;;;;;;12.16;44.48;93432.50;5096212;28;20031;-73
2022/04/07 08:10:49;;;;;;;8.80;4.40;;;;;;;12.22;44.62;93421.41;5131874;27;20039;-73
2022/04/07 08:13:14;;;;;;;4.93;3.88;;;;;;;12.37;43.91;93418.88;5113163;28;20100;-73
2022/04/07 08:15:40;;;;;;;7.32;3.75;;;;;;;12.39;43.73;93411.72;5113121;28;20031;-73
2022/04/07 08:18:05;;;;;;;11.95;4.07;;;;;;;12.51;43.88;93400.72;5131455;27;20061;-73
2022/04/07 08:20:31;;;;;;;9.35;3.50;;;;;;;12.58;43.49;93398.25;5130216;27;20027;-73
2022/04/07 08:22:57;;;;;;;10.32;4.47;;;;;;;12.61;43.35;93387.47;5131302;27;20076;-73
2022/04/07 08:25:22;;;;;;;6.15;3.88;;;;;;;12.64;43.72;93388.91;5130132;28;20477;-73
2022/04/07 08:27:48;;;;;;;6.32;3.53;;;;;;;12.81;43.59;93368.75;5130029;28;20445;-73
2022/04/07 08:30:13;;;;;;;7.13;3.47;;;;;;;12.97;43.00;93377.25;5130163;28;20382;-73
2022/04/07 08:32:39;;;;;;;6.00;3.67;;;;;;;13.00;43.44;93373.47;5129911;27;20027;-73
2022/04/07 08:35:05;;;;;;;7.38;3.58;;;;;;;13.08;42.94;93352.56;5131480;27;20031;-73
2022/04/07 08:37:31;;;;;;;5.32;3.80;;;;;;;13.22;42.89;93356.16;5131156;27;20051;-73
2022/04/07 08:39:56;;;;;;;4.47;3.40;;;;;;;13.36;42.59;93338.94;5130002;28;20114;-73
2022/04/07 08:42:22;;;;;;;9.05;3.70;;;;;;;13.52;42.41;93335.34;5114888;27;20031;-73
2022/04/07 08:44:48;;;;;;;6.78;3.50;;;;;;;13.68;42.40;93345.59;5133617;27;20035;-73
2022/04/07 08:47:18;;;;;;;8.07;4.43;;;;;;;13.92;42.45;93343.69;5133606;27;20435;-73
2022/04/07 08:49:44;;;;;;;7.78;3.90;;;;;;;14.12;40.98;93344.69;5133677;27;20464;-73
2022/04/07 08:52:11;;;;;;;9.43;3.78;;;;;;;14.15;41.45;93333.91;5099349;27;20037;-75
2022/04/07 08:54:37;;;;;;;8.82;3.78;;;;;;;14.12;41.24;93326.44;5116439;27;20031;-76
2022/04/07 08:57:03;;;;;;;6.15;3.80;;;;;;;14.25;40.64;93331.78;5116330;27;20321;-76
2022/04/07 08:59:29;;;;;;;10.48;4.28;;;;;;;14.39;40.71;93332.75;5133397;27;20050;-78
2022/04/07 09:02:02;;;;;;;24.60;12.27;;;;;;;14.48;40.79;93333.44;5116236;27;20508;-79
2022/04/07 09:04:29;;;;;;;8.40;4.95;;;;;;;14.45;40.75;93321.53;5099262;27;20098;-73
2022/04/07 09:06:55;;;;;;;7.90;4.75;;;;;;;14.44;40.13;93314.72;5116086;27;20031;-73
2022/04/07 09:09:22;;;;;;;7.65;4.60;;;;;;;14.52;39.81;93342.56;5133150;27;20030;-73
2022/04/07 09:11:52;;;;;;;8.80;5.05;;;;;;;14.41;40.41;93330.75;5133129;27;20378;-73
2022/04/07 09:14:18;;;;;;;7.03;4.00;;;;;;;14.50;40.13;93341.88;5133183;27;20031;-73
2022/04/07 09:16:43;;;;;;;10.88;4.45;;;;;;;14.52;40.64;93342.56;5132927;27;20037;-73
2022/04/07 09:19:09;;;;;;;7.80;3.80;;;;;;;14.51;40.90;93339.09;5098712;27;20072;-73
2022/04/07 09:21:34;;;;;;;9.38;4.20;;;;;;;14.50;42.11;93345.31;5132879;27;20072;-73
2022/04/07 09:24:00;;;;;;;9.15;4.30;;;;;;;14.50;41.55;93344.50;5132916;27;20023;-73
2022/04/07 09:26:27;;;;;;;9.77;4.20;;;;;;;14.39;41.63;93343.19;5115968;27;20479;-73
2022/04/07 09:28:56;;;;;;;8.45;4.32;;;;;;;14.27;41.33;93342.88;5115832;27;20023;-73
2022/04/07 09:31:24;;;;;;;6.72;4.13;;;;;;;14.21;41.69;93334.97;5098732;27;20065;-73
2022/04/07 09:33:53;;;;;;;8.70;4.30;;;;;;;14.12;41.81;93344.69;5132791;27;20080;-73
2022/04/07 09:36:21;;;;;;;7.45;4.60;;;;;;;13.99;42.40;93345.38;5098548;27;20104;-73
2022/04/07 09:38:51;;;;;;;8.65;4.28;;;;;;;13.81;41.99;93335.31;5098819;27;20035;-73
2022/04/07 09:41:19;;;;;;;8.23;4.45;;;;;;;13.93;41.94;93363.56;5132813;27;20058;-73
2022/04/07 09:43:49;;;;;;;8.38;4.03;;;;;;;13.91;42.03;93368.16;5115715;27;20038;-73
2022/04/07 09:46:19;;;;;;;8.85;5.32;;;;;;;13.83;42.58;93372.50;5115560;27;20039;-73
2022/04/07 09:49:14;;;;;;;8.27;4.90;;;;;;;13.65;41.92;93385.13;5115821;27;20053;-78
2022/04/07 09:51:40;;;;;;;8.15;4.70;;;;;;;13.65;41.87;93387.72;5102972;27;20086;-76
2022/04/07 09:54:09;;;;;;;11.05;6.05;;;;;;;13.52;41.97;93388.34;5128988;27;20414;-73
2022/04/07 09:56:35;;;;;;;11.95;6.10;;;;;;;13.37;41.76;93393.56;5131657;27;20115;-74
2022/04/07 09:59:00;;;;;;;10.02;6.65;;;;;;;13.21;41.71;93401.50;5135497;27;20031;-73
2022/04/07 10:01:25;;;;;;;8.73;5.78;;;;;;;13.18;42.07;93412.28;5128507;27;20031;-73
2022/04/07 10:03:51;;;;;;;10.68;4.45;;;;;;;13.04;42.10;93402.59;5110337;27;20026;-74
2022/04/07 10:06:17;;;;;;;8.07;5.30;;;;;;;12.95;42.49;93410.53;5129754;27;20106;-73
2022/04/07 10:08:42;;;;;;;10.63;4.40;;;;;;;12.88;42.94;93412.19;5096282;27;20035;-73
2022/04/07 10:11:08;;;;;;;9.60;5.72;;;;;;;12.82;45.31;93412.09;5130506;27;20039;-77
2022/04/07 10:13:36;;;;;;;7.00;4.18;;;;;;;12.73;47.09;93421.75;5090087;28;20027;-75
2022/04/07 10:16:02;;;;;;;11.93;4.95;;;;;;;12.62;46.51;93416.94;5124278;27;20019;-73
2022/04/07 10:18:29;;;;;;;9.90;6.80;;;;;;;12.49;47.12;93409.69;5147427;27;20474;-73
2022/04/07 10:20:57;;;;;;;12.30;6.85;;;;;;;12.30;48.13;93409.16;5117664;27;20045;-73
2022/04/07 10:23:56;;;;;;;9.98;5.03;;;;;;;12.18;49.09;93413.13;5118509;27;20125;-75
2022/04/07 10:26:21;;;;;;;9.00;4.63;;;;;;;12.09;49.65;93419.38;5101909;27;20139;-73
2022/04/07 10:28:54;;;;;;;12.50;5.90;;;;;;;11.99;50.58;93416.16;5117421;27;20027;-72
2022/04/07 10:31:22;;;;;;;10.88;5.43;;;;;;;11.82;54.13;93415.38;5100545;27;20032;-72
2022/04/07 10:33:47;;;;;;;11.82;5.75;;;;;;;11.82;53.58;93404.97;5088718;27;20058;-73
2022/04/07 10:36:19;;;;;;;10.25;4.68;;;;;;;11.74;55.75;93420.59;5113442;27;20517;-73
2022/04/07 10:38:47;;;;;;;12.32;5.20;;;;;;;11.47;56.92;93414.81;5125982;27;20047;-72
2022/04/07 10:41:38;;;;;;;10.02;4.80;;;;;;;11.26;56.60;93430.16;5104459;27;20038;-73
2022/04/07 10:44:11;;;;;;;15.18;5.18;;;;;;;11.08;57.67;93415.53;5116837;27;20042;-72
2022/04/07 10:46:36;;;;;;;12.70;4.32;;;;;;;11.00;59.89;93420.72;5088365;27;20123;-73
2022/04/07 10:49:29;;;;;;;11.43;4.60;;;;;;;10.95;60.70;93418.63;5108592;27;20023;-73
2022/04/07 10:51:55;;;;;;;10.25;3.97;;;;;;;10.83;60.11;93417.31;5117210;27;20054;-73
2022/04/07 10:54:25;;;;;;;12.43;4.40;;;;;;;10.83;61.47;93416.50;5111171;27;20022;-73
2022/04/07 10:56:59;;;;;;;11.73;3.78;;;;;;;10.86;61.07;93416.19;5093094;27;20031;-73
2022/04/07 10:59:35;;;;;;;10.30;4.15;;;;;;;10.86;60.23;93414.41;5101941;27;20036;-73
2022/04/07 11:02:07;;;;;;;10.88;3.80;;;;;;;10.87;61.71;93412.63;5109211;27;20219;-73
2022/04/07 11:04:36;;;;;;;9.18;3.78;;;;;;;10.91;61.95;93398.31;5126769;27;20039;-72
2022/04/07 11:07:04;;;;;;;11.00;4.03;;;;;;;10.92;59.90;93398.19;5122012;27;20062;-72
2022/04/07 11:09:43;;;;;;;12.15;4.50;;;;;;;10.89;60.39;93387.28;5121323;27;20244;-72
2022/04/07 11:12:09;;;;;;;10.93;4.20;;;;;;;10.90;60.72;93396.72;5117837;27;20019;-72
2022/04/07 11:14:35;;;;;;;9.52;4.57;;;;;;;10.90;60.62;93391.53;5116637;27;20030;-72
2022/04/07 11:17:02;;;;;;;9.90;4.88;;;;;;;11.02;61.48;93403.19;5078850;28;20015;-72
2022/04/07 11:19:53;;;;;;;9.50;5.40;;;;;;;10.99;60.79;93392.31;5128378;27;20489;-72
2022/04/07 11:22:22;;;;;;;;;;;;;;;10.99;61.05;93384.53;5127067;27;20020;-72
2022/04/07 11:24:52;;;;;;;11.15;5.03;;;;;;;11.04;61.58;93395.25;5114960;27;19964;-73
2022/04/07 11:27:35;;;;;;;11.57;5.50;;;;;;;11.06;61.43;93399.31;5124535;27;20039;-72
2022/04/07 11:30:04;;;;;;;9.60;5.40;;;;;;;11.06;60.71;93395.88;5119961;27;20035;-72
2022/04/07 11:32:30;;;;;;;11.30;5.90;;;;;;;10.91;60.30;93378.34;5107164;27;20430;-82
2022/04/07 11:34:58;;;;;;;10.30;6.55;;;;;;;11.03;61.32;93391.00;5093693;28;20091;-75